createdAt,value
2023-02-28T00:00:21.839Z,5.23
2023-02-28T00:02:49.529Z,3.40
2023-02-28T00:05:19.069Z,4.03
2023-02-28T00:07:47.336Z,4.57
2023-02-28T00:10:21.724Z,5.43
2023-02-28T00:12:52.937Z,5.00
2023-02-28T00:15:21.074Z,4.80
2023-02-28T00:17:48.766Z,4.73
2023-02-28T00:20:16.647Z,4.70
2023-02-28T00:22:49.693Z,5.23
2023-02-28T00:25:19.823Z,6.53
2023-02-28T00:27:47.578Z,5.30
2023-02-28T00:30:17.521Z,6.23
2023-02-28T00:32:45.332Z,5.37
2023-02-28T00:35:13.366Z,5.00
2023-02-28T00:37:42.802Z,5.27
2023-02-28T00:40:10.988Z,5.17
2023-02-28T00:42:38.772Z,5.63
2023-02-28T00:45:07.238Z,5.53
2023-02-28T00:47:34.997Z,5.40
2023-02-28T00:50:03.280Z,5.63
2023-02-28T00:52:31.058Z,6.10
2023-02-28T00:54:58.796Z,5.70
2023-02-28T00:57:27.348Z,5.93
2023-02-28T00:59:58.074Z,5.67
2023-02-28T01:02:25.897Z,6.47
2023-02-28T01:04:54.736Z,5.97
2023-02-28T01:07:22.623Z,5.77
2023-02-28T01:09:50.405Z,6.23
2023-02-28T01:12:18.181Z,5.83
2023-02-28T01:14:48.385Z,5.13
2023-02-28T01:17:16.091Z,6.33
2023-02-28T01:19:43.797Z,5.87
2023-02-28T01:22:11.600Z,5.80
2023-02-28T01:24:39.258Z,5.60
2023-02-28T01:27:07.001Z,5.77
2023-02-28T01:29:34.699Z,6.37
2023-02-28T01:32:02.539Z,5.67
2023-02-28T01:34:30.252Z,5.60
2023-02-28T01:36:59.872Z,6.30
2023-02-28T01:39:27.727Z,7.70
2023-02-28T01:41:55.534Z,7.60
2023-02-28T01:45:00.937Z,7.33
2023-02-28T01:47:40.488Z,7.47
2023-02-28T01:50:16.402Z,5.77
2023-02-28T01:52:44.222Z,6.03
2023-02-28T01:55:11.948Z,6.10
2023-02-28T01:57:42.684Z,5.20
2023-02-28T02:00:16.157Z,5.60
2023-02-28T02:02:51.576Z,4.90
2023-02-28T02:05:23.884Z,4.83
2023-02-28T02:07:55.371Z,5.33
2023-02-28T02:10:33.893Z,4.37
2023-02-28T02:13:13.732Z,5.20
2023-02-28T02:16:01.409Z,4.87
2023-02-28T02:18:47.981Z,5.43
2023-02-28T02:21:36.742Z,4.77
2023-02-28T02:24:16.891Z,4.57
2023-02-28T02:27:00.221Z,3.83
2023-02-28T02:29:55.661Z,4.00
2023-02-28T02:32:44.959Z,3.93
2023-02-28T02:35:15.405Z,3.67
2023-02-28T02:38:31.597Z,4.30
2023-02-28T02:41:15.924Z,4.13
2023-02-28T02:43:53.878Z,3.77
2023-02-28T02:46:30.840Z,4.43
2023-02-28T02:49:01.381Z,4.23
2023-02-28T02:51:29.418Z,4.60
2023-02-28T02:54:16.853Z,3.93
2023-02-28T02:56:46.265Z,4.20
2023-02-28T02:59:15.119Z,4.67
2023-02-28T03:01:42.837Z,3.87
2023-02-28T03:04:14.194Z,4.73
2023-02-28T03:06:42.484Z,4.27
2023-02-28T03:09:10.781Z,5.43
2023-02-28T03:11:41.172Z,4.83
2023-02-28T03:14:15.519Z,5.07
2023-02-28T03:17:09.033Z,4.40
2023-02-28T03:19:54.117Z,4.90
2023-02-28T03:22:50.477Z,4.67
2023-02-28T03:25:38.196Z,4.90
2023-02-28T03:28:23.861Z,3.90
2023-02-28T03:31:27.813Z,4.07
2023-02-28T03:34:01.905Z,3.57
2023-02-28T03:36:31.302Z,3.57
2023-02-28T03:39:06.598Z,3.63
2023-02-28T03:41:39.915Z,4.03
2023-02-28T03:44:16.499Z,3.57
2023-02-28T03:46:49.309Z,4.13
2023-02-28T03:49:22.996Z,3.87
2023-02-28T03:51:50.964Z,4.50
2023-02-28T03:54:28.862Z,3.83
2023-02-28T03:57:23.335Z,3.60
2023-02-28T03:59:58.033Z,4.10
2023-02-28T04:02:25.887Z,4.20
2023-02-28T04:04:53.568Z,3.57
2023-02-28T04:07:21.298Z,4.03
2023-02-28T04:09:48.988Z,4.33
2023-02-28T04:12:16.717Z,4.20
2023-02-28T04:14:44.401Z,4.80
2023-02-28T04:17:12.116Z,3.80
2023-02-28T04:19:40.182Z,5.20
2023-02-28T04:22:09.197Z,4.20
2023-02-28T04:24:36.957Z,3.93
2023-02-28T04:27:04.994Z,4.17
2023-02-28T04:29:35.708Z,4.63
2023-02-28T04:32:03.797Z,5.03
2023-02-28T04:34:32.396Z,4.27
2023-02-28T04:37:14.668Z,4.87
2023-02-28T04:39:42.650Z,4.60
2023-02-28T04:42:10.969Z,3.93
2023-02-28T04:44:38.642Z,4.23
2023-02-28T04:47:06.528Z,4.23
2023-02-28T04:49:34.280Z,4.00
2023-02-28T04:52:01.995Z,4.13
2023-02-28T04:54:30.200Z,3.07
2023-02-28T04:56:58.472Z,3.50
2023-02-28T04:59:26.173Z,4.17
2023-02-28T05:01:53.951Z,3.97
2023-02-28T05:04:21.830Z,3.67
2023-02-28T05:06:49.514Z,4.20
2023-02-28T05:09:17.210Z,5.00
2023-02-28T05:11:44.866Z,5.40
2023-02-28T05:14:13.989Z,4.93
2023-02-28T05:16:41.667Z,5.30
2023-02-28T05:19:09.516Z,5.47
2023-02-28T05:21:38.237Z,6.33
2023-02-28T05:24:08.874Z,5.87
2023-02-28T05:26:37.503Z,5.97
2023-02-28T05:29:06.060Z,5.97
2023-02-28T05:31:34.180Z,6.03
2023-02-28T05:34:01.995Z,6.47
2023-02-28T05:36:29.684Z,7.57
2023-02-28T05:38:57.468Z,6.33
2023-02-28T05:41:25.191Z,5.27
2023-02-28T05:43:52.955Z,4.97
2023-02-28T05:46:20.677Z,5.77
2023-02-28T05:48:48.810Z,5.50
2023-02-28T05:51:16.725Z,5.07
2023-02-28T05:53:44.515Z,5.07
2023-02-28T05:56:12.218Z,4.63
2023-02-28T05:58:39.940Z,5.97
2023-02-28T06:01:37.682Z,8.47
2023-02-28T06:04:06.899Z,6.53
2023-02-28T06:06:38.026Z,5.50
2023-02-28T06:09:06.395Z,6.33
2023-02-28T06:11:34.163Z,5.23
2023-02-28T06:14:02.108Z,7.50
2023-02-28T06:16:30.428Z,9.27
2023-02-28T06:18:58.801Z,8.87
2023-02-28T06:21:28.525Z,9.60
2023-02-28T06:23:57.334Z,9.67
2023-02-28T06:26:25.034Z,7.73
2023-02-28T06:28:52.807Z,6.77
2023-02-28T06:31:20.695Z,7.63
2023-02-28T06:33:48.558Z,7.00
2023-02-28T06:36:16.372Z,7.57
2023-02-28T06:38:44.445Z,6.47
2023-02-28T06:41:12.207Z,6.80
2023-02-28T06:43:41.696Z,6.67
2023-02-28T06:46:11.520Z,6.10
2023-02-28T06:48:39.313Z,14.33
2023-02-28T06:51:15.705Z,10.70
2023-02-28T06:53:43.514Z,9.63
2023-02-28T06:56:12.901Z,8.03
2023-02-28T06:58:41.240Z,8.73
2023-02-28T07:01:09.238Z,14.10
2023-02-28T07:03:37.161Z,9.47
2023-02-28T07:06:06.069Z,9.53
2023-02-28T07:08:34.876Z,8.43
2023-02-28T07:11:02.722Z,6.80
2023-02-28T07:13:30.483Z,6.97
2023-02-28T07:15:59.724Z,7.10
2023-02-28T07:18:27.597Z,8.00
2023-02-28T07:20:55.301Z,8.17
2023-02-28T07:23:23.057Z,7.13
2023-02-28T07:25:51.484Z,11.67
2023-02-28T07:28:19.219Z,7.87
2023-02-28T07:30:46.953Z,6.47
2023-02-28T07:33:14.810Z,7.70
2023-02-28T07:35:42.641Z,5.73
2023-02-28T07:38:10.554Z,6.33
2023-02-28T07:40:38.260Z,6.80
2023-02-28T07:43:06.042Z,6.20
2023-02-28T07:45:35.477Z,5.10
2023-02-28T07:48:03.497Z,5.73
2023-02-28T07:50:31.927Z,6.37
2023-02-28T07:53:00.088Z,6.77
2023-02-28T07:55:28.024Z,22.13
2023-02-28T07:57:55.758Z,17.00
2023-02-28T08:00:24.133Z,8.00
2023-02-28T08:02:52.278Z,5.50
2023-02-28T08:05:22.009Z,4.80
2023-02-28T08:07:50.771Z,7.80
2023-02-28T08:59:05.316Z,6.23
2023-02-28T09:01:33.343Z,9.07
2023-02-28T09:04:02.734Z,9.63
2023-02-28T09:06:30.899Z,7.67
2023-02-28T09:09:02.311Z,7.57
2023-02-28T09:11:30.091Z,5.43
2023-02-28T09:13:59.623Z,6.50
2023-02-28T09:16:27.525Z,5.87
2023-02-28T09:18:55.316Z,6.90
2023-02-28T09:21:23.139Z,7.87
2023-02-28T09:23:51.182Z,5.90
2023-02-28T09:26:23.916Z,4.93
2023-02-28T09:28:51.891Z,4.97
2023-02-28T09:31:24.641Z,4.70
2023-02-28T09:33:54.176Z,4.47
2023-02-28T09:36:23.426Z,7.43
2023-02-28T09:38:54.065Z,4.40
2023-02-28T09:41:23.716Z,4.63
2023-02-28T09:43:55.070Z,6.00
2023-02-28T09:46:42.990Z,5.97
2023-02-28T09:49:18.749Z,6.53
2023-02-28T09:52:04.143Z,5.80
2023-02-28T09:54:33.089Z,6.13
2023-02-28T09:57:06.226Z,4.63
2023-02-28T09:59:39.841Z,7.10
2023-02-28T10:02:14.760Z,7.20
2023-02-28T10:04:58.673Z,10.43
2023-02-28T10:07:32.370Z,7.17
2023-02-28T10:10:00.523Z,6.77
2023-02-28T10:12:28.184Z,7.07
2023-02-28T10:14:55.894Z,7.30
2023-02-28T10:17:26.777Z,7.20
2023-02-28T10:20:01.704Z,8.17
2023-02-28T10:22:37.378Z,5.60
2023-02-28T10:25:21.934Z,4.47
2023-02-28T10:27:50.657Z,5.03
2023-02-28T10:30:18.358Z,5.10
2023-02-28T10:32:54.446Z,4.50
2023-02-28T10:35:26.342Z,4.10
2023-02-28T10:37:58.818Z,3.27
2023-02-28T10:40:30.693Z,3.50
2023-02-28T10:42:59.382Z,4.33
2023-02-28T10:45:27.779Z,3.47
2023-02-28T10:48:22.960Z,3.30
2023-02-28T10:50:54.438Z,3.33
2023-02-28T10:53:28.228Z,5.80
2023-02-28T10:56:07.596Z,3.60
2023-02-28T10:58:49.549Z,3.23
2023-02-28T11:01:38.035Z,2.70
2023-02-28T11:04:23.931Z,3.30
2023-02-28T11:07:01.792Z,3.53
2023-02-28T11:09:31.689Z,3.13
2023-02-28T11:11:59.384Z,3.30
2023-02-28T11:14:31.092Z,5.10
2023-02-28T11:17:01.944Z,4.83
2023-02-28T11:19:32.453Z,4.27
2023-02-28T11:22:01.753Z,2.57
2023-02-28T11:24:36.686Z,2.83
2023-02-28T11:27:04.523Z,3.27
2023-02-28T11:29:33.170Z,3.40
2023-02-28T11:32:10.022Z,3.10
2023-02-28T11:34:38.573Z,2.77
2023-02-28T11:37:09.408Z,2.87
2023-02-28T11:39:37.165Z,4.63
2023-02-28T11:42:27.606Z,2.53
2023-02-28T11:45:18.972Z,3.20
2023-02-28T11:47:58.567Z,3.50
2023-02-28T11:50:43.705Z,3.00
2023-02-28T11:53:30.990Z,3.40
2023-02-28T11:56:04.099Z,3.50
2023-02-28T11:58:40.800Z,4.20
2023-02-28T12:01:08.655Z,3.67
2023-02-28T12:04:07.521Z,3.50
2023-02-28T12:06:41.784Z,4.23
2023-02-28T12:09:22.012Z,4.40
2023-02-28T12:11:55.569Z,4.67
2023-02-28T12:14:50.488Z,4.80
2023-02-28T12:17:40.108Z,4.30
2023-02-28T12:20:13.920Z,4.03
2023-02-28T12:22:47.495Z,3.63
2023-02-28T12:25:37.064Z,3.70
2023-02-28T12:28:04.827Z,2.97
2023-02-28T12:30:34.484Z,2.30
2023-02-28T12:33:15.678Z,2.47
2023-02-28T12:35:50.979Z,3.03
2023-02-28T13:26:39.636Z,2.00
2023-02-28T13:29:19.096Z,1.97
2023-02-28T13:32:25.844Z,3.13
2023-02-28T13:34:53.646Z,2.40
2023-02-28T13:37:25.476Z,1.90
2023-02-28T13:40:01.143Z,2.73
2023-02-28T13:42:31.961Z,3.57
2023-02-28T13:45:02.615Z,2.77
2023-02-28T13:47:53.691Z,2.37
2023-02-28T13:50:27.364Z,3.50
2023-02-28T13:53:13.993Z,4.30
2023-02-28T13:55:54.165Z,4.40
2023-02-28T13:58:47.099Z,3.80
2023-02-28T14:01:39.204Z,4.80
2023-02-28T14:04:33.499Z,6.10
2023-02-28T14:07:01.479Z,4.23
2023-02-28T14:09:36.842Z,3.70
2023-02-28T14:12:42.008Z,3.20
2023-02-28T14:15:43.195Z,11.00
2023-02-28T14:18:30.489Z,4.70
2023-02-28T14:21:03.473Z,3.10
2023-02-28T14:23:43.402Z,3.33
2023-02-28T14:26:20.052Z,2.77
2023-02-28T14:29:04.884Z,20.50
2023-02-28T14:31:40.379Z,10.93
2023-02-28T14:34:18.430Z,8.30
2023-02-28T14:36:46.429Z,3.23
2023-02-28T14:39:32.149Z,3.63
2023-02-28T14:42:05.836Z,3.17
2023-02-28T14:44:33.608Z,2.00
2023-02-28T14:47:09.814Z,2.47
2023-02-28T14:49:40.309Z,2.77
2023-02-28T14:52:11.018Z,1.77
2023-02-28T14:54:39.075Z,1.63
2023-02-28T14:57:06.897Z,2.00
2023-02-28T14:59:36.162Z,2.07
2023-02-28T15:02:21.913Z,6.83
2023-02-28T15:05:31.925Z,4.80
2023-02-28T15:08:06.913Z,2.17
2023-02-28T15:10:34.764Z,2.10
2023-02-28T15:13:11.366Z,3.50
2023-02-28T15:16:24.113Z,8.63
2023-02-28T15:18:56.115Z,3.90
2023-02-28T15:21:32.131Z,2.70
2023-02-28T15:24:08.845Z,3.53
2023-02-28T15:26:41.030Z,4.10
2023-02-28T15:29:14.901Z,7.83
2023-02-28T15:31:56.992Z,12.67
2023-02-28T15:34:44.093Z,7.27
2023-02-28T15:37:33.819Z,3.83
2023-02-28T15:40:28.767Z,6.17
2023-02-28T15:43:00.178Z,3.63
2023-02-28T15:45:39.550Z,5.83
2023-02-28T15:48:14.644Z,5.00
2023-02-28T15:50:42.510Z,12.37
2023-02-28T15:53:15.079Z,4.33
2023-02-28T15:55:42.773Z,2.03
2023-02-28T15:58:12.097Z,8.07
2023-02-28T16:00:39.836Z,5.77
2023-02-28T16:03:35.597Z,8.93
2023-02-28T16:06:28.322Z,9.07
2023-02-28T16:08:57.181Z,10.43
2023-02-28T16:11:25.009Z,7.53
2023-02-28T16:13:52.812Z,5.43
2023-02-28T16:16:22.192Z,4.73
2023-02-28T16:18:49.961Z,2.53
2023-02-28T16:21:17.699Z,2.50
2023-02-28T16:23:45.485Z,2.70
2023-02-28T16:26:23.948Z,3.27
2023-02-28T16:28:52.138Z,2.43
2023-02-28T16:31:19.932Z,2.17
2023-02-28T16:33:47.817Z,2.10
2023-02-28T16:36:21.137Z,1.70
2023-02-28T16:38:48.995Z,1.60
2023-02-28T16:41:21.976Z,4.07
2023-02-28T16:43:51.228Z,7.40
2023-02-28T16:46:19.203Z,3.50
2023-02-28T16:48:47.489Z,3.23
2023-02-28T16:51:18.371Z,2.07
2023-02-28T16:53:46.420Z,3.00
2023-02-28T16:56:23.021Z,2.43
2023-02-28T16:58:50.894Z,2.87
2023-02-28T17:01:22.667Z,3.27
2023-02-28T17:03:50.726Z,3.50
2023-02-28T17:06:29.709Z,3.40
2023-02-28T17:08:58.707Z,3.50
2023-02-28T17:11:26.618Z,2.47
2023-02-28T17:13:57.327Z,2.23
2023-02-28T17:16:32.352Z,2.83
2023-02-28T17:19:05.408Z,3.73
2023-02-28T17:21:34.102Z,3.00
2023-02-28T17:24:01.830Z,3.10
2023-02-28T17:26:30.161Z,4.73
2023-02-28T17:28:58.504Z,3.33
2023-02-28T17:31:27.026Z,2.30
2023-02-28T17:33:57.590Z,4.73
2023-02-28T17:36:30.249Z,4.97
2023-02-28T17:38:59.500Z,2.80
2023-02-28T17:41:27.494Z,4.87
2023-02-28T17:43:56.231Z,5.53
2023-02-28T17:46:24.883Z,2.90
2023-02-28T17:48:53.602Z,2.50
2023-02-28T17:51:22.470Z,4.13
2023-02-28T17:53:50.200Z,6.70
2023-02-28T17:56:27.337Z,4.50
2023-02-28T17:58:56.347Z,4.47
2023-02-28T18:01:26.905Z,2.50
2023-02-28T18:03:56.576Z,2.30
2023-02-28T18:06:31.238Z,3.47
2023-02-28T18:08:59.264Z,2.50
2023-02-28T18:11:41.984Z,1.97
2023-02-28T18:14:09.946Z,2.20
2023-02-28T18:16:38.981Z,2.23
2023-02-28T18:19:07.176Z,3.60
2023-02-28T18:21:34.866Z,4.20
2023-02-28T18:24:02.647Z,3.90
2023-02-28T18:26:30.621Z,4.83
2023-02-28T18:28:58.674Z,4.60
2023-02-28T18:31:26.365Z,4.40
2023-02-28T18:33:54.154Z,3.10
2023-02-28T18:36:22.066Z,3.70
2023-02-28T18:38:50.573Z,4.27
2023-02-28T18:41:20.744Z,4.43
2023-02-28T18:43:48.788Z,7.33
2023-02-28T18:46:17.356Z,6.30
2023-02-28T18:48:45.375Z,4.03
2023-02-28T18:51:22.133Z,3.87
2023-02-28T18:53:49.876Z,5.40
2023-02-28T18:56:19.078Z,6.67
2023-02-28T18:58:46.794Z,7.50
2023-02-28T19:01:18.758Z,7.50
2023-02-28T19:03:46.783Z,5.67
2023-02-28T19:06:14.652Z,3.17
2023-02-28T19:08:42.412Z,3.40
2023-02-28T19:11:13.870Z,4.10
2023-02-28T19:13:41.904Z,5.33
2023-02-28T19:16:10.366Z,7.07
2023-02-28T19:18:38.218Z,5.30
2023-02-28T19:21:12.367Z,5.33
2023-02-28T19:23:40.271Z,6.03
2023-02-28T19:26:09.063Z,7.63
2023-02-28T19:28:36.788Z,9.33
2023-02-28T19:31:04.660Z,6.90
2023-02-28T19:33:32.385Z,5.43
2023-02-28T19:36:01.314Z,4.10
2023-02-28T19:38:29.027Z,3.97
2023-02-28T19:41:01.686Z,4.47
2023-02-28T19:43:29.990Z,6.40
2023-02-28T19:45:57.662Z,7.43
2023-02-28T19:48:27.962Z,9.33
2023-02-28T19:50:59.785Z,6.20
2023-02-28T19:53:29.535Z,5.30
2023-02-28T19:55:57.191Z,6.13
2023-02-28T19:58:24.915Z,6.57
2023-02-28T20:00:52.850Z,5.63
2023-02-28T20:03:20.768Z,4.77
2023-02-28T20:05:48.568Z,3.93
2023-02-28T20:08:16.254Z,5.43
2023-02-28T20:10:44.003Z,3.23
2023-02-28T20:13:11.694Z,3.20
2023-02-28T20:15:39.459Z,3.47
2023-02-28T20:18:07.137Z,2.70
2023-02-28T20:20:37.608Z,3.70
2023-02-28T20:23:05.410Z,3.53
2023-02-28T20:25:33.103Z,2.97
2023-02-28T20:28:00.785Z,2.67
2023-02-28T20:30:28.559Z,2.20
2023-02-28T20:32:56.270Z,2.40
2023-02-28T20:35:24.022Z,2.07
2023-02-28T20:37:51.722Z,2.87
2023-02-28T20:40:19.702Z,2.63
2023-02-28T20:42:47.428Z,2.97
2023-02-28T20:45:15.160Z,5.20
2023-02-28T20:47:43.671Z,4.60
2023-02-28T20:50:12.467Z,5.10
2023-02-28T20:52:40.224Z,3.70
2023-02-28T20:55:08.797Z,3.00
2023-02-28T20:57:36.560Z,3.20
2023-02-28T21:00:06.839Z,3.43
2023-02-28T21:02:34.557Z,3.03
2023-02-28T21:05:02.658Z,2.67
2023-02-28T21:07:30.529Z,3.20
2023-02-28T21:09:58.217Z,2.57
2023-02-28T21:12:25.921Z,2.53
2023-02-28T21:14:54.208Z,2.33
2023-02-28T21:17:21.893Z,2.63
2023-02-28T21:19:49.589Z,2.40
2023-02-28T21:22:17.288Z,2.07
2023-02-28T21:24:45.430Z,2.50
2023-02-28T21:27:13.216Z,3.13
2023-02-28T21:29:40.970Z,2.60
2023-02-28T21:32:08.725Z,2.87
2023-02-28T21:34:36.514Z,2.73
2023-02-28T21:37:05.080Z,2.27
2023-02-28T21:39:33.472Z,2.83
2023-02-28T21:42:03.623Z,3.50
2023-02-28T21:44:32.587Z,2.67
2023-02-28T21:47:03.245Z,2.93
2023-02-28T21:49:31.183Z,3.67
2023-02-28T21:51:58.889Z,2.63
2023-02-28T21:54:26.952Z,2.73
2023-02-28T21:56:55.339Z,2.47
2023-02-28T21:59:23.337Z,2.50
2023-02-28T22:01:51.748Z,2.40
2023-02-28T22:04:22.480Z,2.50
2023-02-28T22:06:54.779Z,1.90
2023-02-28T22:09:22.663Z,2.33
2023-02-28T22:11:50.556Z,2.00
2023-02-28T22:14:18.313Z,2.07
2023-02-28T22:16:55.217Z,2.00
2023-02-28T22:19:23.529Z,2.10
2023-02-28T22:21:51.731Z,1.90
2023-02-28T22:24:23.321Z,2.47
2023-02-28T22:26:51.502Z,3.70
2023-02-28T22:29:19.236Z,3.10
2023-02-28T22:31:47.174Z,2.47
2023-02-28T22:34:14.992Z,2.67
2023-02-28T22:36:42.850Z,2.60
2023-02-28T22:39:10.581Z,2.67
2023-02-28T22:41:38.827Z,3.30
2023-02-28T22:44:07.328Z,2.33
2023-02-28T22:46:35.852Z,2.30
2023-02-28T22:49:04.331Z,4.30
2023-02-28T22:51:32.112Z,4.77
2023-02-28T22:53:59.759Z,3.67
2023-02-28T22:56:28.950Z,3.00
2023-02-28T22:58:58.091Z,3.33
2023-02-28T23:01:27.252Z,2.70
2023-02-28T23:03:55.143Z,3.17
2023-02-28T23:06:23.758Z,2.30
2023-02-28T23:08:52.394Z,2.00
2023-02-28T23:11:24.676Z,2.37
2023-02-28T23:13:58.847Z,2.43
2023-02-28T23:16:27.441Z,1.83
2023-02-28T23:18:55.188Z,1.60
2023-02-28T23:21:23.134Z,2.03
2023-02-28T23:23:50.806Z,1.80
2023-02-28T23:26:18.621Z,1.70
2023-02-28T23:28:46.354Z,1.40
2023-02-28T23:31:14.039Z,1.47
2023-02-28T23:33:41.797Z,1.73
2023-02-28T23:36:18.732Z,2.30
2023-02-28T23:38:47.823Z,1.37
2023-02-28T23:41:15.672Z,2.17
2023-02-28T23:43:43.821Z,1.60
2023-02-28T23:46:12.472Z,1.60
2023-02-28T23:48:40.343Z,1.63
2023-02-28T23:51:19.224Z,1.27
2023-02-28T23:53:48.349Z,1.53
2023-02-28T23:56:19.338Z,1.70
2023-02-28T23:58:47.487Z,1.90
